sensor_id;sensor_type;location;lat;lon;timestamp;pressure;altitude;pressure_sealevel;temperature;humidity
16613;BME280;8419;52.358;9.752;2023-03-30T00:02:22;100160.00;;;20.47;40.34
16613;BME280;8419;52.358;9.752;2023-03-30T00:05:09;100159.00;;;20.59;40.13
16613;BME280;8419;52.358;9.752;2023-03-30T00:07:55;100161.00;;;20.64;40.07
16613;BME280;8419;52.358;9.752;2023-03-30T00:10:41;100161.00;;;20.51;40.24
16613;BME280;8419;52.358;9.752;2023-03-30T00:13:28;100158.00;;;20.57;40.17
16613;BME280;8419;52.358;9.752;2023-03-30T00:16:14;100159.00;;;20.50;40.26
16613;BME280;8419;52.358;9.752;2023-03-30T00:18:59;100141.00;;;20.60;40.08
16613;BME280;8419;52.358;9.752;2023-03-30T00:21:45;100138.00;;;20.60;40.04
16613;BME280;8419;52.358;9.752;2023-03-30T00:24:31;100129.00;;;20.51;40.16
16613;BME280;8419;52.358;9.752;2023-03-30T00:27:18;100124.00;;;20.49;40.12
16613;BME280;8419;52.358;9.752;2023-03-30T00:30:06;100116.00;;;20.36;40.27
16613;BME280;8419;52.358;9.752;2023-03-30T00:32:52;100106.00;;;20.27;40.33
16613;BME280;8419;52.358;9.752;2023-03-30T00:35:38;100113.00;;;20.21;40.41
16613;BME280;8419;52.358;9.752;2023-03-30T00:38:25;100105.00;;;20.18;40.36
16613;BME280;8419;52.358;9.752;2023-03-30T00:41:11;100097.00;;;20.18;40.32
16613;BME280;8419;52.358;9.752;2023-03-30T00:43:59;100093.00;;;20.19;40.32
16613;BME280;8419;52.358;9.752;2023-03-30T00:46:45;100086.00;;;20.15;40.40
16613;BME280;8419;52.358;9.752;2023-03-30T00:49:30;100083.00;;;20.18;40.28
16613;BME280;8419;52.358;9.752;2023-03-30T00:52:19;100082.00;;;20.06;40.51
16613;BME280;8419;52.358;9.752;2023-03-30T00:55:09;100076.00;;;19.95;40.76
16613;BME280;8419;52.358;9.752;2023-03-30T00:57:55;100068.00;;;20.05;40.58
16613;BME280;8419;52.358;9.752;2023-03-30T01:00:41;100065.00;;;19.99;40.67
16613;BME280;8419;52.358;9.752;2023-03-30T01:03:30;100069.00;;;20.05;40.70
16613;BME280;8419;52.358;9.752;2023-03-30T01:06:17;100053.00;;;20.02;40.74
16613;BME280;8419;52.358;9.752;2023-03-30T01:09:05;100056.00;;;20.05;40.63
16613;BME280;8419;52.358;9.752;2023-03-30T01:11:52;100057.00;;;20.11;40.50
16613;BME280;8419;52.358;9.752;2023-03-30T01:14:38;100067.00;;;20.20;40.35
16613;BME280;8419;52.358;9.752;2023-03-30T01:17:30;100065.00;;;20.15;40.44
16613;BME280;8419;52.358;9.752;2023-03-30T01:20:40;100073.00;;;20.17;40.47
16613;BME280;8419;52.358;9.752;2023-03-30T01:27:25;100066.00;;;20.48;39.96
16613;BME280;8419;52.358;9.752;2023-03-30T01:30:28;100045.00;;;20.28;40.27
16613;BME280;8419;52.358;9.752;2023-03-30T01:37:13;100018.00;;;20.26;40.57
16613;BME280;8419;52.358;9.752;2023-03-30T01:40:05;100018.00;;;20.13;40.56
16613;BME280;8419;52.358;9.752;2023-03-30T01:42:57;100018.00;;;20.13;40.44
16613;BME280;8419;52.358;9.752;2023-03-30T01:45:46;100005.00;;;20.12;40.46
16613;BME280;8419;52.358;9.752;2023-03-30T01:48:38;100010.00;;;20.11;40.45
16613;BME280;8419;52.358;9.752;2023-03-30T01:51:34;99995.00;;;20.11;40.43
16613;BME280;8419;52.358;9.752;2023-03-30T01:54:26;99992.00;;;20.13;40.40
16613;BME280;8419;52.358;9.752;2023-03-30T01:57:15;99981.00;;;20.05;40.55
16613;BME280;8419;52.358;9.752;2023-03-30T02:00:05;99976.00;;;20.04;40.58
16613;BME280;8419;52.358;9.752;2023-03-30T02:03:01;99972.00;;;20.07;40.51
16613;BME280;8419;52.358;9.752;2023-03-30T02:05:53;99982.00;;;20.01;40.60
16613;BME280;8419;52.358;9.752;2023-03-30T02:08:40;99984.00;;;19.99;40.72
16613;BME280;8419;52.358;9.752;2023-03-30T02:11:28;99974.00;;;19.96;40.78
16613;BME280;8419;52.358;9.752;2023-03-30T02:14:17;99965.00;;;20.05;40.65
16613;BME280;8419;52.358;9.752;2023-03-30T02:17:08;99957.00;;;20.02;40.70
16613;BME280;8419;52.358;9.752;2023-03-30T02:19:56;99962.00;;;20.05;40.68
16613;BME280;8419;52.358;9.752;2023-03-30T02:22:43;99959.00;;;20.07;40.65
16613;BME280;8419;52.358;9.752;2023-03-30T02:25:29;99959.00;;;20.10;40.60
16613;BME280;8419;52.358;9.752;2023-03-30T02:28:15;99945.00;;;20.08;40.68
16613;BME280;8419;52.358;9.752;2023-03-30T02:31:00;99956.00;;;20.08;40.70
16613;BME280;8419;52.358;9.752;2023-03-30T02:34:02;99943.00;;;20.13;40.53
16613;BME280;8419;52.358;9.752;2023-03-30T02:37:06;99934.00;;;20.14;40.53
16613;BME280;8419;52.358;9.752;2023-03-30T02:40:09;99932.00;;;20.05;40.70
16613;BME280;8419;52.358;9.752;2023-03-30T02:43:11;99891.00;;;20.08;40.60
16613;BME280;8419;52.358;9.752;2023-03-30T02:46:12;99882.00;;;20.10;40.68
16613;BME280;8419;52.358;9.752;2023-03-30T02:49:13;99895.00;;;20.10;40.71
16613;BME280;8419;52.358;9.752;2023-03-30T02:52:07;99894.00;;;20.21;40.56
16613;BME280;8419;52.358;9.752;2023-03-30T02:54:58;99902.00;;;20.29;40.49
16613;BME280;8419;52.358;9.752;2023-03-30T02:57:56;99904.00;;;20.27;40.58
16613;BME280;8419;52.358;9.752;2023-03-30T03:00:50;99902.00;;;20.37;40.47
16613;BME280;8419;52.358;9.752;2023-03-30T03:03:40;99900.00;;;20.47;40.34
16613;BME280;8419;52.358;9.752;2023-03-30T03:06:27;99909.00;;;20.48;40.39
16613;BME280;8419;52.358;9.752;2023-03-30T03:09:14;99903.00;;;20.47;40.43
16613;BME280;8419;52.358;9.752;2023-03-30T03:11:59;99894.00;;;20.56;40.25
16613;BME280;8419;52.358;9.752;2023-03-30T03:14:44;99910.00;;;20.47;40.46
16613;BME280;8419;52.358;9.752;2023-03-30T03:17:30;99899.00;;;20.54;40.33
16613;BME280;8419;52.358;9.752;2023-03-30T03:20:18;99896.00;;;20.62;40.21
16613;BME280;8419;52.358;9.752;2023-03-30T03:23:04;99894.00;;;20.66;40.17
16613;BME280;8419;52.358;9.752;2023-03-30T03:25:50;99898.00;;;20.72;40.11
16613;BME280;8419;52.358;9.752;2023-03-30T03:28:36;99888.00;;;20.82;39.90
16613;BME280;8419;52.358;9.752;2023-03-30T03:31:21;99882.00;;;20.80;39.89
16613;BME280;8419;52.358;9.752;2023-03-30T03:34:08;99871.00;;;20.92;39.74
16613;BME280;8419;52.358;9.752;2023-03-30T03:36:53;99865.00;;;20.92;39.74
16613;BME280;8419;52.358;9.752;2023-03-30T03:39:39;99869.00;;;20.91;39.77
16613;BME280;8419;52.358;9.752;2023-03-30T03:42:24;99861.00;;;20.91;39.79
16613;BME280;8419;52.358;9.752;2023-03-30T03:45:10;99860.00;;;20.97;39.71
16613;BME280;8419;52.358;9.752;2023-03-30T03:47:56;99864.00;;;20.91;39.78
16613;BME280;8419;52.358;9.752;2023-03-30T03:50:42;99854.00;;;20.92;39.83
16613;BME280;8419;52.358;9.752;2023-03-30T03:53:28;99849.00;;;21.10;39.48
16613;BME280;8419;52.358;9.752;2023-03-30T03:56:13;99843.00;;;21.13;39.42
16613;BME280;8419;52.358;9.752;2023-03-30T03:58:59;99845.00;;;21.06;39.52
16613;BME280;8419;52.358;9.752;2023-03-30T04:01:47;99845.00;;;21.11;39.41
16613;BME280;8419;52.358;9.752;2023-03-30T04:04:32;99855.00;;;21.25;39.21
16613;BME280;8419;52.358;9.752;2023-03-30T04:07:17;99859.00;;;21.24;39.16
16613;BME280;8419;52.358;9.752;2023-03-30T04:10:03;99860.00;;;21.20;39.21
16613;BME280;8419;52.358;9.752;2023-03-30T04:12:49;99853.00;;;21.21;39.23
16613;BME280;8419;52.358;9.752;2023-03-30T04:15:35;99845.00;;;21.25;39.14
16613;BME280;8419;52.358;9.752;2023-03-30T04:18:20;99846.00;;;21.29;39.03
16613;BME280;8419;52.358;9.752;2023-03-30T04:21:06;99833.00;;;21.29;38.98
16613;BME280;8419;52.358;9.752;2023-03-30T04:23:57;99823.00;;;21.25;39.07
16613;BME280;8419;52.358;9.752;2023-03-30T04:26:42;99814.00;;;21.21;39.09
16613;BME280;8419;52.358;9.752;2023-03-30T04:29:29;99805.00;;;21.17;39.13
16613;BME280;8419;52.358;9.752;2023-03-30T04:32:14;99793.00;;;21.23;38.99
16613;BME280;8419;52.358;9.752;2023-03-30T04:35:05;99795.00;;;21.21;38.98
16613;BME280;8419;52.358;9.752;2023-03-30T04:37:51;99790.00;;;21.12;39.08
16613;BME280;8419;52.358;9.752;2023-03-30T04:40:36;99796.00;;;21.17;38.96
16613;BME280;8419;52.358;9.752;2023-03-30T04:43:23;99791.00;;;21.19;38.87
16613;BME280;8419;52.358;9.752;2023-03-30T04:46:08;99798.00;;;21.18;38.90
16613;BME280;8419;52.358;9.752;2023-03-30T04:48:54;99805.00;;;21.21;38.82
16613;BME280;8419;52.358;9.752;2023-03-30T04:51:41;99806.00;;;21.28;38.71
16613;BME280;8419;52.358;9.752;2023-03-30T04:54:26;99809.00;;;21.30;38.68
16613;BME280;8419;52.358;9.752;2023-03-30T04:57:12;99808.00;;;21.31;38.68
16613;BME280;8419;52.358;9.752;2023-03-30T04:59:58;99808.00;;;21.35;38.60
16613;BME280;8419;52.358;9.752;2023-03-30T05:02:43;99798.00;;;21.41;38.47
16613;BME280;8419;52.358;9.752;2023-03-30T05:05:30;99791.00;;;21.42;38.41
16613;BME280;8419;52.358;9.752;2023-03-30T05:08:16;99795.00;;;21.44;38.39
16613;BME280;8419;52.358;9.752;2023-03-30T05:11:01;99798.00;;;21.49;38.25
16613;BME280;8419;52.358;9.752;2023-03-30T05:13:51;99805.00;;;21.52;38.15
16613;BME280;8419;52.358;9.752;2023-03-30T05:16:37;99794.00;;;21.47;38.19
16613;BME280;8419;52.358;9.752;2023-03-30T05:19:22;99796.00;;;21.51;38.05
16613;BME280;8419;52.358;9.752;2023-03-30T05:22:08;99799.00;;;21.49;38.01
16613;BME280;8419;52.358;9.752;2023-03-30T05:24:54;99802.00;;;21.45;38.03
16613;BME280;8419;52.358;9.752;2023-03-30T05:27:39;99802.00;;;21.48;37.92
16613;BME280;8419;52.358;9.752;2023-03-30T05:30:25;99798.00;;;21.49;37.89
16613;BME280;8419;52.358;9.752;2023-03-30T05:33:10;99789.00;;;21.50;37.84
16613;BME280;8419;52.358;9.752;2023-03-30T05:35:56;99785.00;;;21.54;37.73
16613;BME280;8419;52.358;9.752;2023-03-30T05:38:42;99779.00;;;21.64;37.59
16613;BME280;8419;52.358;9.752;2023-03-30T05:41:28;99781.00;;;21.71;37.44
16613;BME280;8419;52.358;9.752;2023-03-30T05:44:14;99785.00;;;21.80;37.25
16613;BME280;8419;52.358;9.752;2023-03-30T05:46:59;99780.00;;;21.78;37.25
16613;BME280;8419;52.358;9.752;2023-03-30T05:49:45;99792.00;;;21.81;37.20
16613;BME280;8419;52.358;9.752;2023-03-30T05:52:31;99786.00;;;21.84;37.13
16613;BME280;8419;52.358;9.752;2023-03-30T05:55:17;99781.00;;;21.94;36.96
16613;BME280;8419;52.358;9.752;2023-03-30T05:58:02;99791.00;;;21.98;36.86
16613;BME280;8419;52.358;9.752;2023-03-30T06:00:47;99797.00;;;21.97;36.86
16613;BME280;8419;52.358;9.752;2023-03-30T06:03:33;99803.00;;;22.04;36.71
16613;BME280;8419;52.358;9.752;2023-03-30T06:06:19;99801.00;;;22.06;36.65
16613;BME280;8419;52.358;9.752;2023-03-30T06:09:05;99797.00;;;22.12;36.50
16613;BME280;8419;52.358;9.752;2023-03-30T06:11:51;99792.00;;;22.20;36.34
16613;BME280;8419;52.358;9.752;2023-03-30T06:14:37;99779.00;;;22.38;36.08
16613;BME280;8419;52.358;9.752;2023-03-30T06:17:23;99788.00;;;22.53;35.89
16613;BME280;8419;52.358;9.752;2023-03-30T06:20:11;99788.00;;;22.62;35.73
16613;BME280;8419;52.358;9.752;2023-03-30T06:22:57;99785.00;;;22.65;35.63
16613;BME280;8419;52.358;9.752;2023-03-30T06:25:45;99782.00;;;22.74;35.47
16613;BME280;8419;52.358;9.752;2023-03-30T06:28:36;99772.00;;;22.80;35.40
16613;BME280;8419;52.358;9.752;2023-03-30T06:31:22;99765.00;;;22.91;35.28
16613;BME280;8419;52.358;9.752;2023-03-30T06:34:08;99761.00;;;22.99;35.07
16613;BME280;8419;52.358;9.752;2023-03-30T06:36:54;99755.00;;;23.05;34.98
16613;BME280;8419;52.358;9.752;2023-03-30T06:39:40;99754.00;;;23.14;34.83
16613;BME280;8419;52.358;9.752;2023-03-30T06:42:26;99742.00;;;23.16;34.85
16613;BME280;8419;52.358;9.752;2023-03-30T06:45:21;99736.00;;;23.21;34.78
16613;BME280;8419;52.358;9.752;2023-03-30T06:48:07;99740.00;;;23.28;34.60
16613;BME280;8419;52.358;9.752;2023-03-30T06:50:53;99752.00;;;23.26;34.69
16613;BME280;8419;52.358;9.752;2023-03-30T06:53:38;99748.00;;;23.30;34.53
16613;BME280;8419;52.358;9.752;2023-03-30T06:56:26;99744.00;;;23.36;34.50
16613;BME280;8419;52.358;9.752;2023-03-30T06:59:14;99742.00;;;23.43;34.43
16613;BME280;8419;52.358;9.752;2023-03-30T07:02:01;99758.00;;;23.47;34.32
16613;BME280;8419;52.358;9.752;2023-03-30T07:04:54;99761.00;;;23.51;34.28
16613;BME280;8419;52.358;9.752;2023-03-30T07:07:41;99750.00;;;23.58;34.08
16613;BME280;8419;52.358;9.752;2023-03-30T07:10:26;99766.00;;;23.58;34.12
16613;BME280;8419;52.358;9.752;2023-03-30T07:13:12;99782.00;;;23.59;34.06
16613;BME280;8419;52.358;9.752;2023-03-30T07:16:00;99784.00;;;23.62;33.99
16613;BME280;8419;52.358;9.752;2023-03-30T07:18:45;99780.00;;;23.67;33.86
16613;BME280;8419;52.358;9.752;2023-03-30T07:21:32;99789.00;;;23.74;33.81
16613;BME280;8419;52.358;9.752;2023-03-30T07:24:17;99782.00;;;23.73;33.85
16613;BME280;8419;52.358;9.752;2023-03-30T07:27:03;99776.00;;;23.81;33.78
16613;BME280;8419;52.358;9.752;2023-03-30T07:29:49;99771.00;;;23.90;33.65
16613;BME280;8419;52.358;9.752;2023-03-30T07:32:35;99767.00;;;23.97;33.59
16613;BME280;8419;52.358;9.752;2023-03-30T07:35:21;99783.00;;;24.00;33.52
16613;BME280;8419;52.358;9.752;2023-03-30T07:38:06;99785.00;;;24.13;33.38
16613;BME280;8419;52.358;9.752;2023-03-30T07:40:52;99783.00;;;24.20;33.28
16613;BME280;8419;52.358;9.752;2023-03-30T07:43:38;99782.00;;;24.22;33.25
16613;BME280;8419;52.358;9.752;2023-03-30T07:46:24;99787.00;;;24.29;33.12
16613;BME280;8419;52.358;9.752;2023-03-30T07:49:10;99784.00;;;24.40;33.04
16613;BME280;8419;52.358;9.752;2023-03-30T07:51:55;99777.00;;;24.47;32.94
16613;BME280;8419;52.358;9.752;2023-03-30T07:54:41;99775.00;;;24.51;32.98
16613;BME280;8419;52.358;9.752;2023-03-30T07:57:28;99781.00;;;24.51;32.95
16613;BME280;8419;52.358;9.752;2023-03-30T08:00:16;99776.00;;;24.58;32.91
16613;BME280;8419;52.358;9.752;2023-03-30T08:03:03;99780.00;;;24.61;32.85
16613;BME280;8419;52.358;9.752;2023-03-30T08:05:53;99778.00;;;24.63;32.84
16613;BME280;8419;52.358;9.752;2023-03-30T08:08:39;99783.00;;;24.80;32.67
16613;BME280;8419;52.358;9.752;2023-03-30T08:11:25;99778.00;;;24.93;32.48
16613;BME280;8419;52.358;9.752;2023-03-30T08:14:10;99783.00;;;24.95;32.46
16613;BME280;8419;52.358;9.752;2023-03-30T08:16:56;99788.00;;;25.04;32.36
16613;BME280;8419;52.358;9.752;2023-03-30T08:19:41;99779.00;;;24.99;32.45
16613;BME280;8419;52.358;9.752;2023-03-30T08:22:27;99779.00;;;25.07;32.34
16613;BME280;8419;52.358;9.752;2023-03-30T08:25:12;99776.00;;;25.09;32.34
16613;BME280;8419;52.358;9.752;2023-03-30T08:27:58;99781.00;;;25.12;32.35
16613;BME280;8419;52.358;9.752;2023-03-30T08:30:44;99784.00;;;25.23;32.20
16613;BME280;8419;52.358;9.752;2023-03-30T08:33:31;99784.00;;;25.28;32.19
16613;BME280;8419;52.358;9.752;2023-03-30T08:36:17;99782.00;;;25.40;32.04
16613;BME280;8419;52.358;9.752;2023-03-30T08:39:04;99774.00;;;25.44;32.04
16613;BME280;8419;52.358;9.752;2023-03-30T08:42:00;99776.00;;;25.53;31.91
16613;BME280;8419;52.358;9.752;2023-03-30T08:44:48;99764.00;;;25.54;31.76
16613;BME280;8419;52.358;9.752;2023-03-30T08:47:39;99762.00;;;25.43;31.84
16613;BME280;8419;52.358;9.752;2023-03-30T08:50:31;99769.00;;;25.48;31.68
16613;BME280;8419;52.358;9.752;2023-03-30T08:53:18;99769.00;;;25.50;31.75
16613;BME280;8419;52.358;9.752;2023-03-30T08:56:07;99762.00;;;25.34;32.15
16613;BME280;8419;52.358;9.752;2023-03-30T08:59:07;99768.00;;;25.15;32.50
16613;BME280;8419;52.358;9.752;2023-03-30T09:02:01;99764.00;;;25.29;32.53
16613;BME280;8419;52.358;9.752;2023-03-30T09:04:57;99754.00;;;25.48;32.29
16613;BME280;8419;52.358;9.752;2023-03-30T09:07:53;99745.00;;;25.70;31.99
16613;BME280;8419;52.358;9.752;2023-03-30T09:10:42;99741.00;;;25.81;31.71
16613;BME280;8419;52.358;9.752;2023-03-30T09:13:33;99745.00;;;26.03;31.38
16613;BME280;8419;52.358;9.752;2023-03-30T09:16:21;99753.00;;;26.08;31.16
16613;BME280;8419;52.358;9.752;2023-03-30T09:19:15;99747.00;;;26.04;31.09
16613;BME280;8419;52.358;9.752;2023-03-30T09:22:05;99765.00;;;26.19;31.00
16613;BME280;8419;52.358;9.752;2023-03-30T09:24:51;99758.00;;;26.40;30.37
16613;BME280;8419;52.358;9.752;2023-03-30T09:27:44;99745.00;;;26.62;30.24
16613;BME280;8419;52.358;9.752;2023-03-30T09:30:36;99739.00;;;26.88;29.96
16613;BME280;8419;52.358;9.752;2023-03-30T09:33:29;99745.00;;;27.05;29.85
16613;BME280;8419;52.358;9.752;2023-03-30T09:36:19;99744.00;;;27.09;29.64
16613;BME280;8419;52.358;9.752;2023-03-30T09:39:14;99744.00;;;27.01;29.27
16613;BME280;8419;52.358;9.752;2023-03-30T09:42:17;99764.00;;;26.83;29.21
16613;BME280;8419;52.358;9.752;2023-03-30T09:45:12;99753.00;;;26.64;29.32
16613;BME280;8419;52.358;9.752;2023-03-30T09:48:03;99771.00;;;26.35;29.74
16613;BME280;8419;52.358;9.752;2023-03-30T09:50:49;99763.00;;;26.21;29.92
16613;BME280;8419;52.358;9.752;2023-03-30T09:53:40;99806.00;;;26.13;30.09
16613;BME280;8419;52.358;9.752;2023-03-30T09:56:34;99795.00;;;25.37;32.13
16613;BME280;8419;52.358;9.752;2023-03-30T09:59:29;99809.00;;;24.29;35.10
16613;BME280;8419;52.358;9.752;2023-03-30T10:02:19;99795.00;;;23.73;36.15
16613;BME280;8419;52.358;9.752;2023-03-30T10:05:13;99789.00;;;23.44;37.29
16613;BME280;8419;52.358;9.752;2023-03-30T10:08:04;99789.00;;;23.44;37.84
16613;BME280;8419;52.358;9.752;2023-03-30T10:10:54;99794.00;;;23.28;38.43
16613;BME280;8419;52.358;9.752;2023-03-30T10:13:43;99785.00;;;23.44;38.47
16613;BME280;8419;52.358;9.752;2023-03-30T10:16:30;99782.00;;;23.65;38.18
16613;BME280;8419;52.358;9.752;2023-03-30T10:19:20;99778.00;;;23.81;38.37
16613;BME280;8419;52.358;9.752;2023-03-30T10:22:14;99782.00;;;24.08;38.16
16613;BME280;8419;52.358;9.752;2023-03-30T10:25:17;99782.00;;;24.34;37.75
16613;BME280;8419;52.358;9.752;2023-03-30T10:28:18;99787.00;;;24.51;37.41
16613;BME280;8419;52.358;9.752;2023-03-30T10:31:15;99780.00;;;24.67;37.02
16613;BME280;8419;52.358;9.752;2023-03-30T10:34:12;99769.00;;;24.82;36.61
16613;BME280;8419;52.358;9.752;2023-03-30T10:37:17;99781.00;;;24.90;36.29
16613;BME280;8419;52.358;9.752;2023-03-30T10:40:15;99779.00;;;25.27;35.66
16613;BME280;8419;52.358;9.752;2023-03-30T10:43:02;99799.00;;;25.37;35.29
16613;BME280;8419;52.358;9.752;2023-03-30T10:45:52;99815.00;;;25.03;35.76
16613;BME280;8419;52.358;9.752;2023-03-30T10:48:47;99848.00;;;23.94;37.24
16613;BME280;8419;52.358;9.752;2023-03-30T10:51:47;99849.00;;;23.06;37.83
16613;BME280;8419;52.358;9.752;2023-03-30T10:54:40;99848.00;;;22.41;39.47
16613;BME280;8419;52.358;9.752;2023-03-30T10:57:34;99852.00;;;22.07;40.38
16613;BME280;8419;52.358;9.752;2023-03-30T11:00:32;99838.00;;;22.02;40.77
16613;BME280;8419;52.358;9.752;2023-03-30T11:03:24;99820.00;;;21.85;41.41
16613;BME280;8419;52.358;9.752;2023-03-30T11:06:23;99833.00;;;21.73;41.90
16613;BME280;8419;52.358;9.752;2023-03-30T11:09:25;99823.00;;;21.64;42.20
16613;BME280;8419;52.358;9.752;2023-03-30T11:12:15;99825.00;;;21.57;42.58
16613;BME280;8419;52.358;9.752;2023-03-30T11:15:08;99830.00;;;21.57;42.95
16613;BME280;8419;52.358;9.752;2023-03-30T11:22:08;99826.00;;;21.67;43.55
16613;BME280;8419;52.358;9.752;2023-03-30T11:24:58;99815.00;;;21.53;43.83
16613;BME280;8419;52.358;9.752;2023-03-30T11:27:52;99803.00;;;21.67;43.71
16613;BME280;8419;52.358;9.752;2023-03-30T11:30:40;99812.00;;;22.01;43.30
16613;BME280;8419;52.358;9.752;2023-03-30T11:33:32;99812.00;;;22.09;43.50
16613;BME280;8419;52.358;9.752;2023-03-30T11:36:26;99788.00;;;22.05;43.86
16613;BME280;8419;52.358;9.752;2023-03-30T11:39:28;99804.00;;;22.24;43.81
16613;BME280;8419;52.358;9.752;2023-03-30T11:42:20;99787.00;;;22.49;43.52
16613;BME280;8419;52.358;9.752;2023-03-30T11:45:17;99773.00;;;22.77;43.08
16613;BME280;8419;52.358;9.752;2023-03-30T11:51:49;99785.00;;;23.56;42.41
16613;BME280;8419;52.358;9.752;2023-03-30T11:54:59;99781.00;;;24.12;41.81
16613;BME280;8419;52.358;9.752;2023-03-30T11:58:22;99778.00;;;24.56;41.09
16613;BME280;8419;52.358;9.752;2023-03-30T12:01:31;99781.00;;;24.93;40.00
16613;BME280;8419;52.358;9.752;2023-03-30T12:04:26;99779.00;;;25.17;38.45
16613;BME280;8419;52.358;9.752;2023-03-30T12:07:22;99774.00;;;25.40;37.95
16613;BME280;8419;52.358;9.752;2023-03-30T12:10:15;99803.00;;;25.43;37.85
16613;BME280;8419;52.358;9.752;2023-03-30T12:13:04;99790.00;;;25.43;36.26
16613;BME280;8419;52.358;9.752;2023-03-30T12:15:54;99802.00;;;25.68;35.44
16613;BME280;8419;52.358;9.752;2023-03-30T12:18:50;99797.00;;;26.08;34.57
16613;BME280;8419;52.358;9.752;2023-03-30T12:21:43;99790.00;;;26.28;33.68
16613;BME280;8419;52.358;9.752;2023-03-30T12:24:34;99805.00;;;26.17;33.99
16613;BME280;8419;52.358;9.752;2023-03-30T12:27:23;99799.00;;;26.00;34.18
16613;BME280;8419;52.358;9.752;2023-03-30T12:30:22;99799.00;;;25.90;34.08
16613;BME280;8419;52.358;9.752;2023-03-30T12:33:17;99795.00;;;26.10;33.65
16613;BME280;8419;52.358;9.752;2023-03-30T12:36:13;99809.00;;;25.98;33.95
16613;BME280;8419;52.358;9.752;2023-03-30T12:39:12;99787.00;;;26.19;33.21
16613;BME280;8419;52.358;9.752;2023-03-30T12:42:05;99779.00;;;26.76;32.74
16613;BME280;8419;52.358;9.752;2023-03-30T12:45:02;99786.00;;;26.80;31.37
16613;BME280;8419;52.358;9.752;2023-03-30T12:48:08;99824.00;;;27.07;30.52
16613;BME280;8419;52.358;9.752;2023-03-30T12:51:08;99803.00;;;27.04;29.55
16613;BME280;8419;52.358;9.752;2023-03-30T12:54:10;99800.00;;;26.85;29.61
16613;BME280;8419;52.358;9.752;2023-03-30T12:57:07;99803.00;;;26.61;29.45
16613;BME280;8419;52.358;9.752;2023-03-30T13:00:34;99811.00;;;26.41;29.45
16613;BME280;8419;52.358;9.752;2023-03-30T13:03:48;99820.00;;;26.12;29.13
16613;BME280;8419;52.358;9.752;2023-03-30T13:06:38;99820.00;;;25.96;28.95
16613;BME280;8419;52.358;9.752;2023-03-30T13:09:32;99812.00;;;25.71;29.03
16613;BME280;8419;52.358;9.752;2023-03-30T13:12:28;99804.00;;;25.58;29.48
16613;BME280;8419;52.358;9.752;2023-03-30T13:15:32;99830.00;;;25.25;29.84
16613;BME280;8419;52.358;9.752;2023-03-30T13:18:32;99848.00;;;25.13;30.15
16613;BME280;8419;52.358;9.752;2023-03-30T13:21:21;99848.00;;;25.08;30.01
16613;BME280;8419;52.358;9.752;2023-03-30T13:24:24;99838.00;;;25.19;29.96
16613;BME280;8419;52.358;9.752;2023-03-30T13:27:21;99841.00;;;25.69;29.46
16613;BME280;8419;52.358;9.752;2023-03-30T13:30:13;99838.00;;;26.54;28.71
16613;BME280;8419;52.358;9.752;2023-03-30T13:33:09;99851.00;;;27.26;27.91
16613;BME280;8419;52.358;9.752;2023-03-30T13:36:04;99844.00;;;27.10;27.96
16613;BME280;8419;52.358;9.752;2023-03-30T13:39:03;99834.00;;;27.49;27.71
16613;BME280;8419;52.358;9.752;2023-03-30T13:41:58;99821.00;;;28.45;26.60
16613;BME280;8419;52.358;9.752;2023-03-30T13:44:54;99828.00;;;28.87;26.24
16613;BME280;8419;52.358;9.752;2023-03-30T13:47:52;99826.00;;;28.07;27.16
16613;BME280;8419;52.358;9.752;2023-03-30T13:50:45;99825.00;;;27.20;28.07
16613;BME280;8419;52.358;9.752;2023-03-30T13:53:48;99820.00;;;26.62;28.71
16613;BME280;8419;52.358;9.752;2023-03-30T13:56:40;99824.00;;;26.17;29.40
16613;BME280;8419;52.358;9.752;2023-03-30T13:59:31;99813.00;;;25.77;29.75
16613;BME280;8419;52.358;9.752;2023-03-30T14:02:20;99822.00;;;25.53;30.15
16613;BME280;8419;52.358;9.752;2023-03-30T14:05:17;99829.00;;;25.85;30.19
16613;BME280;8419;52.358;9.752;2023-03-30T14:08:10;99820.00;;;26.78;29.36
16613;BME280;8419;52.358;9.752;2023-03-30T14:10:57;99818.00;;;26.64;29.37
16613;BME280;8419;52.358;9.752;2023-03-30T14:13:44;99834.00;;;26.37;29.65
16613;BME280;8419;52.358;9.752;2023-03-30T14:16:34;99840.00;;;26.85;29.12
16613;BME280;8419;52.358;9.752;2023-03-30T14:19:23;99829.00;;;28.22;27.45
16613;BME280;8419;52.358;9.752;2023-03-30T14:22:13;99829.00;;;29.02;26.56
16613;BME280;8419;52.358;9.752;2023-03-30T14:25:03;99837.00;;;29.34;25.97
16613;BME280;8419;52.358;9.752;2023-03-30T14:27:50;99826.00;;;29.42;25.70
16613;BME280;8419;52.358;9.752;2023-03-30T14:30:35;99825.00;;;29.66;25.17
16613;BME280;8419;52.358;9.752;2023-03-30T14:33:22;99840.00;;;29.94;24.58
16613;BME280;8419;52.358;9.752;2023-03-30T14:36:08;99818.00;;;29.37;24.78
16613;BME280;8419;52.358;9.752;2023-03-30T14:38:57;99823.00;;;29.43;25.13
16613;BME280;8419;52.358;9.752;2023-03-30T14:41:43;99806.00;;;29.56;25.14
16613;BME280;8419;52.358;9.752;2023-03-30T14:44:28;99819.00;;;29.94;24.92
16613;BME280;8419;52.358;9.752;2023-03-30T14:47:14;99814.00;;;30.29;24.71
16613;BME280;8419;52.358;9.752;2023-03-30T14:50:06;99815.00;;;29.97;24.69
16613;BME280;8419;52.358;9.752;2023-03-30T14:52:53;99820.00;;;29.71;24.97
16613;BME280;8419;52.358;9.752;2023-03-30T14:55:39;99824.00;;;28.91;25.22
16613;BME280;8419;52.358;9.752;2023-03-30T14:58:26;99820.00;;;28.26;25.76
16613;BME280;8419;52.358;9.752;2023-03-30T15:01:15;99788.00;;;28.36;25.50
16613;BME280;8419;52.358;9.752;2023-03-30T15:04:09;99827.00;;;28.37;25.34
16613;BME280;8419;52.358;9.752;2023-03-30T15:06:57;99829.00;;;28.37;25.39
16613;BME280;8419;52.358;9.752;2023-03-30T15:09:45;99823.00;;;28.99;25.14
16613;BME280;8419;52.358;9.752;2023-03-30T15:12:34;99829.00;;;29.36;24.54
16613;BME280;8419;52.358;9.752;2023-03-30T15:15:25;99823.00;;;28.46;24.91
16613;BME280;8419;52.358;9.752;2023-03-30T15:18:20;99822.00;;;27.51;25.98
16613;BME280;8419;52.358;9.752;2023-03-30T15:21:08;99841.00;;;26.94;26.61
16613;BME280;8419;52.358;9.752;2023-03-30T15:23:55;99833.00;;;26.46;27.08
16613;BME280;8419;52.358;9.752;2023-03-30T15:26:44;99847.00;;;26.15;27.46
16613;BME280;8419;52.358;9.752;2023-03-30T15:29:31;99862.00;;;26.67;27.05